createdAt,value
2019-04-03T00:00:26.047Z,35.08
2019-04-03T00:01:05.102Z,35.25
2019-04-03T00:01:39.071Z,35.38
2019-04-03T00:02:15.490Z,34.90
2019-04-03T00:02:48.468Z,34.88
2019-04-03T00:03:21.474Z,34.92
2019-04-03T00:03:54.376Z,35.20
2019-04-03T00:04:27.503Z,34.70
2019-04-03T00:05:00.428Z,35.03
2019-04-03T00:05:33.738Z,35.00
2019-04-03T00:06:08.332Z,35.88
2019-04-03T00:06:41.382Z,34.85
2019-04-03T00:07:14.375Z,33.88
2019-04-03T00:07:48.491Z,34.65
2019-04-03T00:08:22.141Z,34.43
2019-04-03T00:08:56.561Z,34.53
2019-04-03T00:09:29.628Z,34.70
2019-04-03T00:10:04.751Z,35.05
2019-04-03T00:10:38.455Z,34.33
2019-04-03T00:11:11.558Z,34.20
2019-04-03T00:11:44.672Z,34.38
2019-04-03T00:12:17.732Z,34.40
2019-04-03T00:12:50.703Z,34.45
2019-04-03T00:13:25.500Z,34.08
2019-04-03T00:13:58.501Z,34.75
2019-04-03T00:14:31.447Z,34.38
2019-04-03T00:15:05.969Z,34.33
2019-04-03T00:15:39.413Z,33.98
2019-04-03T00:16:15.435Z,34.10
2019-04-03T00:16:48.973Z,34.40
2019-04-03T00:17:22.068Z,34.53
2019-04-03T00:17:55.367Z,34.15
2019-04-03T00:18:28.464Z,34.33
2019-04-03T00:19:01.633Z,34.73
2019-04-03T00:19:34.633Z,34.40
2019-04-03T00:20:07.795Z,34.58
2019-04-03T00:20:40.801Z,34.18
2019-04-03T00:21:13.773Z,34.10
2019-04-03T00:21:46.800Z,34.30
2019-04-03T00:22:22.011Z,33.90
2019-04-03T00:22:54.619Z,33.88
2019-04-03T00:23:27.463Z,34.35
2019-04-03T00:24:00.550Z,33.78
2019-04-03T00:24:34.555Z,34.40
2019-04-03T00:25:07.568Z,34.83
2019-04-03T00:25:40.388Z,34.00
2019-04-03T00:26:13.487Z,34.27
2019-04-03T00:26:46.524Z,34.23
2019-04-03T00:27:21.957Z,33.80
2019-04-03T00:27:54.369Z,33.90
2019-04-03T00:28:27.165Z,33.25
2019-04-03T00:29:00.192Z,34.33
2019-04-03T00:29:33.094Z,33.90
2019-04-03T00:30:07.126Z,34.03
2019-04-03T00:30:40.124Z,34.10
2019-04-03T00:31:13.265Z,34.23
2019-04-03T00:31:46.048Z,33.58
2019-04-03T00:32:18.999Z,33.55
2019-04-03T00:32:53.602Z,34.00
2019-04-03T00:33:26.699Z,34.13
2019-04-03T00:33:59.784Z,34.05
2019-04-03T00:34:32.644Z,33.80
2019-04-03T00:35:06.428Z,34.40
2019-04-03T00:35:39.447Z,33.73
2019-04-03T00:36:12.261Z,33.92
2019-04-03T00:36:45.290Z,33.60
2019-04-03T00:37:18.257Z,33.78
2019-04-03T00:37:52.993Z,34.05
2019-04-03T00:38:26.123Z,33.70
2019-04-03T00:39:00.261Z,33.83
2019-04-03T00:39:33.258Z,33.53
2019-04-03T00:40:08.586Z,33.58
2019-04-03T00:40:41.605Z,33.15
2019-04-03T00:41:14.588Z,33.75
2019-04-03T00:41:47.630Z,33.73
2019-04-03T00:42:20.474Z,33.42
2019-04-03T00:42:54.627Z,33.73
2019-04-03T00:43:29.567Z,33.30
2019-04-03T00:44:02.890Z,33.45
2019-04-03T00:44:35.930Z,33.65
2019-04-03T00:45:09.114Z,33.60
2019-04-03T00:45:42.174Z,33.50
2019-04-03T00:46:15.058Z,33.40
2019-04-03T00:46:48.300Z,33.25
2019-04-03T00:47:21.408Z,33.53
2019-04-03T00:47:55.762Z,32.98
2019-04-03T00:48:28.984Z,32.88
2019-04-03T00:49:01.894Z,34.00
2019-04-03T00:49:34.877Z,33.73
2019-04-03T00:50:08.019Z,33.75
2019-04-03T00:50:40.990Z,33.10
2019-04-03T00:51:14.022Z,33.33
2019-04-03T00:51:46.929Z,33.48
2019-04-03T00:52:20.076Z,33.38
2019-04-03T00:52:52.974Z,34.03
2019-04-03T00:53:27.694Z,33.35
2019-04-03T00:54:01.029Z,31.80
2019-04-03T00:54:33.881Z,32.10
2019-04-03T00:55:06.986Z,31.35
2019-04-03T00:55:40.050Z,31.70
2019-04-03T00:56:12.822Z,31.30
2019-04-03T00:56:45.875Z,31.65
2019-04-03T00:57:18.789Z,31.37
2019-04-03T00:57:51.870Z,31.97
2019-04-03T00:58:37.044Z,31.65
2019-04-03T00:59:09.991Z,32.80
2019-04-03T00:59:42.993Z,32.17
2019-04-03T01:00:17.167Z,32.13
2019-04-03T01:00:50.142Z,32.33
2019-04-03T01:01:23.130Z,31.62
2019-04-03T01:01:56.697Z,31.60
2019-04-03T01:02:30.076Z,31.50
2019-04-03T01:03:04.171Z,31.27
2019-04-03T01:03:37.510Z,31.07
2019-04-03T01:04:10.487Z,31.12
2019-04-03T01:04:43.545Z,31.17
2019-04-03T01:05:16.526Z,31.10
2019-04-03T01:05:49.512Z,30.77
2019-04-03T01:06:23.239Z,30.82
2019-04-03T01:06:58.540Z,30.37
2019-04-03T01:07:31.641Z,30.37
2019-04-03T01:08:04.596Z,30.05
2019-04-03T01:08:37.642Z,30.12
2019-04-03T01:09:10.663Z,29.80
2019-04-03T01:09:43.613Z,29.90
2019-04-03T01:10:16.581Z,29.60
2019-04-03T01:10:49.476Z,29.80
2019-04-03T01:11:22.643Z,29.75
2019-04-03T01:11:55.730Z,29.50
2019-04-03T01:12:30.481Z,30.02
2019-04-03T01:13:03.727Z,29.67
2019-04-03T01:13:36.844Z,29.70
2019-04-03T01:14:09.850Z,29.35
2019-04-03T01:14:42.826Z,29.20
2019-04-03T01:15:16.026Z,29.42
2019-04-03T01:15:48.927Z,29.65
2019-04-03T01:16:23.074Z,29.37
2019-04-03T01:16:57.164Z,30.05
2019-04-03T01:17:30.252Z,29.77
2019-04-03T01:18:05.210Z,29.57
2019-04-03T01:18:38.406Z,29.67
2019-04-03T01:19:11.640Z,29.72
2019-04-03T01:19:44.522Z,30.10
2019-04-03T01:20:17.600Z,29.63
2019-04-03T01:20:50.965Z,30.10
2019-04-03T01:21:24.173Z,29.95
2019-04-03T01:21:57.144Z,30.25
2019-04-03T01:22:30.003Z,29.77
2019-04-03T01:23:03.032Z,30.17
2019-04-03T01:23:37.985Z,30.05
2019-04-03T01:24:11.105Z,30.05
2019-04-03T01:24:44.185Z,29.82
2019-04-03T01:25:17.202Z,29.87
2019-04-03T01:25:50.252Z,30.10
2019-04-03T01:26:23.247Z,30.08
2019-04-03T01:26:56.272Z,30.43
2019-04-03T01:27:29.174Z,29.90
2019-04-03T01:28:03.393Z,29.98
2019-04-03T01:28:36.377Z,29.65
2019-04-03T01:29:10.628Z,29.15
2019-04-03T01:29:44.231Z,29.67
2019-04-03T01:30:17.282Z,29.80
2019-04-03T01:30:50.275Z,29.20
2019-04-03T01:31:23.442Z,29.85
2019-04-03T01:31:56.447Z,29.65
2019-04-03T01:32:29.677Z,29.72
2019-04-03T01:33:02.666Z,29.72
2019-04-03T01:33:36.672Z,29.70
2019-04-03T01:34:10.542Z,29.30
2019-04-03T01:34:43.707Z,29.40
2019-04-03T01:35:17.375Z,29.32
2019-04-03T01:35:51.000Z,29.27
2019-04-03T01:36:23.898Z,29.48
2019-04-03T01:36:56.851Z,29.67
2019-04-03T01:37:29.630Z,29.12
2019-04-03T01:38:02.583Z,29.52
2019-04-03T01:38:35.601Z,29.07
2019-04-03T01:39:08.838Z,28.85
2019-04-03T01:39:41.738Z,29.20
2019-04-03T01:40:14.612Z,29.20
2019-04-03T01:40:50.204Z,29.12
2019-04-03T01:41:22.646Z,29.02
2019-04-03T01:41:55.612Z,28.85
2019-04-03T01:42:28.494Z,28.85
2019-04-03T01:43:01.496Z,28.90
2019-04-03T01:43:34.563Z,28.80
2019-04-03T01:44:07.532Z,28.45
2019-04-03T01:44:40.468Z,28.60
2019-04-03T01:45:14.587Z,28.30
2019-04-03T01:45:47.424Z,28.80
2019-04-03T01:46:20.521Z,28.38
2019-04-03T01:46:53.656Z,28.55
2019-04-03T01:47:27.805Z,28.40
2019-04-03T01:48:01.288Z,28.60
2019-04-03T01:48:34.190Z,28.32
2019-04-03T01:49:08.818Z,28.50
2019-04-03T01:49:43.046Z,27.80
2019-04-03T01:50:16.132Z,28.40
2019-04-03T01:50:49.068Z,28.45
2019-04-03T01:51:22.019Z,28.17
2019-04-03T01:51:55.145Z,28.02
2019-04-03T01:52:31.083Z,28.12
2019-04-03T01:53:04.058Z,28.05
2019-04-03T01:53:36.883Z,28.05
2019-04-03T01:54:09.790Z,28.27
2019-04-03T01:54:42.736Z,28.30
2019-04-03T01:55:15.766Z,28.27
2019-04-03T01:55:48.560Z,27.95
2019-04-03T01:56:21.571Z,28.17
2019-04-03T01:56:54.673Z,28.15
2019-04-03T01:57:27.571Z,28.60
2019-04-03T01:58:00.566Z,28.15
2019-04-03T01:58:34.635Z,28.17
2019-04-03T01:59:08.580Z,28.67
2019-04-03T01:59:41.578Z,28.83
2019-04-03T02:00:14.911Z,28.67
2019-04-03T02:00:47.897Z,28.65
2019-04-03T02:01:20.880Z,28.80
2019-04-03T02:01:53.987Z,29.07
2019-04-03T02:02:26.928Z,28.98
2019-04-03T02:03:01.933Z,28.92
2019-04-03T02:03:34.780Z,28.65
2019-04-03T02:04:07.711Z,29.15
2019-04-03T02:04:42.663Z,29.55
2019-04-03T02:05:15.555Z,29.50
2019-04-03T02:05:48.554Z,29.15
2019-04-03T02:06:21.595Z,28.85
2019-04-03T02:06:54.617Z,29.45
2019-04-03T02:07:27.434Z,29.35
2019-04-03T02:08:00.572Z,29.57
2019-04-03T02:08:33.630Z,29.00
2019-04-03T02:09:08.996Z,29.30
2019-04-03T02:09:42.114Z,28.98
2019-04-03T02:10:17.763Z,29.25
2019-04-03T02:10:51.119Z,28.87
2019-04-03T02:11:24.104Z,28.90
2019-04-03T02:11:57.068Z,29.00
2019-04-03T02:12:30.080Z,29.10
2019-04-03T02:13:03.055Z,29.15
2019-04-03T02:13:36.074Z,28.92
2019-04-03T02:14:09.115Z,29.20
2019-04-03T02:14:41.877Z,28.87
2019-04-03T02:15:14.992Z,29.07
2019-04-03T02:15:48.013Z,28.95
2019-04-03T02:16:21.424Z,29.10
2019-04-03T02:16:55.813Z,28.70
2019-04-03T02:17:29.106Z,29.52
2019-04-03T02:18:02.164Z,28.98
2019-04-03T02:18:35.142Z,29.45
2019-04-03T02:19:08.215Z,28.92
2019-04-03T02:19:41.424Z,29.25
2019-04-03T02:20:14.887Z,29.10
2019-04-03T02:20:47.878Z,29.12
2019-04-03T02:21:21.718Z,29.60
2019-04-03T02:21:54.895Z,28.95
2019-04-03T02:22:29.528Z,29.65
2019-04-03T02:23:03.015Z,29.00
2019-04-03T02:23:36.124Z,29.27
2019-04-03T02:24:10.230Z,29.05
2019-04-03T02:24:43.291Z,29.57
2019-04-03T02:25:16.517Z,29.10
2019-04-03T02:25:49.480Z,29.35
2019-04-03T02:26:22.561Z,29.23
2019-04-03T02:26:55.593Z,29.12
2019-04-03T02:27:28.432Z,29.12
2019-04-03T02:28:01.874Z,28.98
2019-04-03T02:28:36.470Z,29.27
2019-04-03T02:29:09.597Z,29.07
2019-04-03T02:29:42.545Z,29.10
2019-04-03T02:30:16.085Z,29.35
2019-04-03T02:30:49.317Z,29.42
2019-04-03T02:31:22.284Z,29.05
2019-04-03T02:31:56.027Z,28.67
2019-04-03T02:32:29.257Z,29.18
2019-04-03T02:33:02.264Z,29.23
2019-04-03T02:33:35.188Z,29.15
2019-04-03T02:34:08.148Z,29.27
2019-04-03T02:34:41.323Z,28.98
2019-04-03T02:35:14.407Z,29.18
2019-04-03T02:35:47.599Z,29.57
2019-04-03T02:36:20.682Z,28.95
2019-04-03T02:36:54.724Z,29.10
2019-04-03T02:37:29.522Z,29.20
2019-04-03T02:38:02.742Z,29.10
2019-04-03T02:38:35.672Z,28.73
2019-04-03T02:39:08.656Z,29.35
2019-04-03T02:39:41.763Z,28.80
2019-04-03T02:40:15.813Z,29.27
2019-04-03T02:40:48.963Z,28.83
2019-04-03T02:41:22.371Z,29.15
2019-04-03T02:41:55.440Z,28.52
2019-04-03T02:42:28.653Z,28.73
2019-04-03T02:43:01.711Z,28.75
2019-04-03T02:43:35.743Z,28.85
2019-04-03T02:44:08.822Z,29.07
2019-04-03T02:44:41.769Z,29.02
2019-04-03T02:45:14.861Z,28.95
2019-04-03T02:45:48.287Z,28.60
2019-04-03T02:46:21.530Z,28.87
2019-04-03T02:46:54.499Z,28.70
2019-04-03T02:47:27.465Z,28.80
2019-04-03T02:48:04.825Z,29.10
2019-04-03T02:48:38.307Z,28.40
2019-04-03T02:49:11.041Z,28.75
2019-04-03T02:49:44.103Z,28.92
2019-04-03T02:50:24.303Z,28.52
2019-04-03T02:50:58.438Z,28.70
2019-04-03T02:51:31.594Z,28.62
2019-04-03T02:52:04.660Z,28.90
2019-04-03T02:52:37.887Z,28.30
2019-04-03T02:53:11.382Z,28.80
2019-04-03T02:53:44.392Z,28.57
2019-04-03T02:54:28.096Z,28.38
2019-04-03T02:55:01.451Z,28.38
2019-04-03T02:55:34.556Z,28.98
2019-04-03T02:56:11.831Z,28.42
2019-04-03T02:56:44.480Z,28.62
2019-04-03T02:57:18.435Z,29.02
2019-04-03T02:57:51.996Z,28.60
2019-04-03T02:58:25.232Z,28.55
2019-04-03T02:58:58.090Z,29.02
2019-04-03T02:59:30.996Z,29.07
2019-04-03T03:00:05.656Z,28.70
2019-04-03T03:00:38.979Z,28.77
2019-04-03T03:01:12.156Z,28.77
2019-04-03T03:01:45.076Z,28.80
2019-04-03T03:02:18.005Z,28.62
2019-04-03T03:02:50.990Z,28.50
2019-04-03T03:03:23.899Z,28.42
2019-04-03T03:03:58.006Z,28.83
2019-04-03T03:04:31.133Z,28.55
2019-04-03T03:05:04.595Z,28.50
2019-04-03T03:05:39.225Z,28.90
2019-04-03T03:06:12.658Z,28.57
2019-04-03T03:06:47.446Z,28.45
2019-04-03T03:07:20.529Z,28.47
2019-04-03T03:07:53.570Z,28.20
2019-04-03T03:08:26.823Z,28.32
2019-04-03T03:09:01.467Z,28.55
2019-04-03T03:09:35.047Z,28.25
2019-04-03T03:10:08.438Z,28.60
2019-04-03T03:10:41.514Z,28.75
2019-04-03T03:11:14.613Z,28.70
2019-04-03T03:11:47.873Z,28.70
2019-04-03T03:12:21.444Z,28.30
2019-04-03T03:12:57.626Z,28.50
2019-04-03T03:13:34.617Z,28.55
2019-04-03T03:14:07.873Z,28.32
2019-04-03T03:14:41.387Z,28.40
2019-04-03T03:15:14.631Z,28.77
2019-04-03T03:15:48.762Z,28.90
2019-04-03T03:16:21.787Z,28.02
2019-04-03T03:16:56.753Z,28.50
2019-04-03T03:17:30.000Z,28.52
2019-04-03T03:18:03.531Z,28.32
2019-04-03T03:18:36.986Z,28.12
2019-04-03T03:19:12.036Z,28.25
2019-04-03T03:19:47.061Z,28.27
2019-04-03T03:20:23.407Z,28.20
2019-04-03T03:20:56.407Z,28.47
2019-04-03T03:21:30.641Z,28.50
2019-04-03T03:22:03.615Z,28.70
2019-04-03T03:22:38.906Z,28.40
2019-04-03T03:23:12.225Z,28.00
2019-04-03T03:23:47.933Z,28.90
2019-04-03T03:24:21.184Z,28.77
2019-04-03T03:24:54.630Z,28.90
2019-04-03T03:25:27.869Z,28.70
2019-04-03T03:26:04.046Z,28.55
2019-04-03T03:26:37.792Z,28.60
2019-04-03T03:27:11.399Z,28.32
2019-04-03T03:27:46.675Z,28.42
2019-04-03T03:28:19.782Z,28.62
2019-04-03T03:28:53.216Z,29.25
2019-04-03T03:29:27.619Z,29.10
2019-04-03T03:30:02.342Z,28.75
2019-04-03T03:30:45.991Z,29.10
2019-04-03T03:31:10.880Z,29.35
2019-04-03T03:32:04.747Z,28.75
2019-04-03T03:32:29.086Z,29.27
2019-04-03T03:33:10.152Z,29.12
2019-04-03T03:33:36.457Z,29.20
2019-04-03T03:34:06.474Z,29.35
2019-04-03T03:35:08.229Z,29.25
2019-04-03T03:35:20.084Z,29.32
2019-04-03T03:35:52.015Z,29.85
2019-04-03T03:36:26.824Z,29.18
2019-04-03T03:37:03.247Z,29.25
2019-04-03T03:37:36.387Z,29.70
2019-04-03T03:38:09.884Z,29.60
2019-04-03T03:38:43.542Z,29.10
2019-04-03T03:39:17.313Z,30.02
2019-04-03T03:39:51.247Z,29.32
2019-04-03T03:40:24.926Z,29.55
2019-04-03T03:40:58.221Z,29.30
2019-04-03T03:41:31.906Z,29.23
2019-04-03T03:42:05.234Z,29.50
2019-04-03T03:42:38.271Z,29.48
2019-04-03T03:43:11.298Z,29.27
2019-04-03T03:43:44.632Z,29.72
2019-04-03T03:44:19.391Z,29.77
2019-04-03T03:44:54.511Z,29.55
2019-04-03T03:45:30.732Z,30.05
2019-04-03T03:46:04.303Z,30.15
2019-04-03T03:46:37.574Z,30.45
2019-04-03T03:47:11.334Z,30.08
2019-04-03T03:47:44.822Z,30.05
2019-04-03T03:48:18.090Z,29.65
2019-04-03T03:48:52.048Z,30.43
2019-04-03T03:49:25.898Z,29.85
2019-04-03T03:49:59.420Z,30.30
2019-04-03T03:50:35.137Z,29.77
2019-04-03T03:51:08.646Z,29.95
2019-04-03T03:51:42.768Z,29.90
2019-04-03T03:52:17.686Z,30.00
2019-04-03T03:52:51.067Z,30.08
2019-04-03T03:53:24.475Z,30.30
2019-04-03T03:53:57.952Z,30.00
2019-04-03T03:54:31.780Z,30.52
2019-04-03T03:55:06.190Z,30.02
2019-04-03T03:55:40.051Z,30.40
2019-04-03T03:56:13.641Z,29.98
2019-04-03T03:56:47.080Z,31.10
2019-04-03T03:57:20.270Z,30.72
2019-04-03T03:57:54.011Z,29.95
2019-04-03T03:58:28.141Z,30.43
2019-04-03T03:59:02.113Z,30.92
2019-04-03T03:59:36.492Z,31.30
2019-04-03T04:00:10.167Z,30.90
2019-04-03T04:00:44.125Z,30.90
2019-04-03T04:01:17.658Z,30.92
2019-04-03T04:01:50.818Z,30.57
2019-04-03T04:02:23.812Z,30.75
2019-04-03T04:02:56.935Z,31.00
2019-04-03T04:03:30.415Z,30.95
2019-04-03T04:04:03.654Z,30.80
2019-04-03T04:04:36.850Z,31.10
2019-04-03T04:05:11.901Z,31.45
2019-04-03T04:05:45.006Z,30.90
2019-04-03T04:06:19.279Z,30.95
2019-04-03T04:06:54.047Z,31.10
2019-04-03T04:07:27.188Z,30.92
2019-04-03T04:08:00.344Z,30.88
2019-04-03T04:08:33.452Z,30.90
2019-04-03T04:09:07.241Z,30.90
2019-04-03T04:09:40.276Z,31.33
2019-04-03T04:10:13.455Z,31.05
2019-04-03T04:10:46.856Z,31.20
2019-04-03T04:11:20.048Z,31.60
2019-04-03T04:11:53.355Z,31.55
2019-04-03T04:12:26.602Z,31.95
2019-04-03T04:12:59.642Z,32.00
2019-04-03T04:13:33.506Z,31.65
2019-04-03T04:14:06.813Z,31.42
2019-04-03T04:14:40.039Z,32.23
2019-04-03T04:15:13.287Z,31.90
2019-04-03T04:15:46.545Z,32.90
2019-04-03T04:16:19.656Z,32.60
2019-04-03T04:16:53.890Z,32.98
2019-04-03T04:17:27.018Z,32.90
2019-04-03T04:18:00.401Z,32.70
2019-04-03T04:18:34.025Z,32.90
2019-04-03T04:19:08.881Z,33.15
2019-04-03T04:19:42.496Z,32.83
2019-04-03T04:20:15.422Z,33.33
2019-04-03T04:20:48.862Z,33.23
2019-04-03T04:21:22.468Z,33.02
2019-04-03T04:21:55.713Z,33.05
2019-04-03T04:22:29.136Z,33.53
2019-04-03T04:23:02.429Z,33.58
2019-04-03T04:23:35.503Z,33.38
2019-04-03T04:24:08.531Z,33.02
2019-04-03T04:24:42.140Z,33.38
2019-04-03T04:25:15.091Z,33.13
2019-04-03T04:25:49.226Z,33.08
2019-04-03T04:26:22.267Z,33.53
2019-04-03T04:26:56.574Z,34.33
2019-04-03T04:27:29.848Z,33.88
2019-04-03T04:28:03.034Z,34.05
2019-04-03T04:28:39.222Z,33.98
2019-04-03T04:29:12.708Z,34.00
2019-04-03T04:29:45.916Z,33.65
2019-04-03T04:30:19.192Z,33.70
2019-04-03T04:30:52.272Z,33.92
2019-04-03T04:31:25.538Z,33.65
2019-04-03T04:31:58.534Z,34.00
2019-04-03T04:32:32.552Z,33.73
2019-04-03T04:33:07.106Z,34.03
2019-04-03T04:33:40.181Z,33.73
2019-04-03T04:34:13.235Z,34.60
2019-04-03T04:34:49.257Z,33.58
2019-04-03T04:35:22.219Z,34.15
2019-04-03T04:35:55.310Z,33.90
2019-04-03T04:36:28.278Z,33.73
2019-04-03T04:37:02.783Z,33.70
2019-04-03T04:37:36.088Z,33.90
2019-04-03T04:38:09.671Z,34.55
2019-04-03T04:38:42.867Z,34.00
2019-04-03T04:39:15.869Z,34.00
2019-04-03T04:39:49.076Z,34.25
2019-04-03T04:40:22.311Z,33.28
2019-04-03T04:40:55.432Z,33.75
2019-04-03T04:41:28.356Z,33.98
2019-04-03T04:42:03.411Z,34.27
2019-04-03T04:42:36.835Z,34.15
2019-04-03T04:43:09.982Z,34.35
2019-04-03T04:43:42.798Z,33.50
2019-04-03T04:44:15.872Z,33.63
2019-04-03T04:44:48.974Z,34.08
2019-04-03T04:45:23.586Z,34.58
2019-04-03T04:45:56.537Z,34.50
2019-04-03T04:46:29.536Z,33.90
2019-04-03T04:47:02.650Z,34.40
2019-04-03T04:47:35.771Z,34.85
2019-04-03T04:48:08.885Z,34.15
2019-04-03T04:48:42.172Z,33.85
2019-04-03T04:49:15.255Z,34.15
2019-04-03T04:49:48.154Z,34.30
2019-04-03T04:50:24.234Z,34.53
2019-04-03T04:50:56.392Z,34.13
2019-04-03T04:51:29.708Z,34.03
2019-04-03T04:52:02.784Z,34.33
2019-04-03T04:52:35.588Z,34.33
2019-04-03T04:53:08.823Z,34.55
2019-04-03T04:53:41.871Z,34.65
2019-04-03T04:54:14.676Z,34.10
2019-04-03T04:54:47.592Z,33.63
2019-04-03T04:55:20.584Z,34.03
2019-04-03T04:55:54.566Z,34.13
2019-04-03T04:56:27.498Z,34.90
2019-04-03T04:57:00.923Z,33.75
2019-04-03T04:57:34.315Z,34.33
2019-04-03T04:58:07.540Z,34.35
2019-04-03T04:58:42.463Z,34.73
2019-04-03T04:59:15.191Z,34.70
2019-04-03T04:59:48.204Z,34.27
2019-04-03T05:00:21.328Z,34.43
2019-04-03T05:00:54.550Z,34.83
2019-04-03T05:01:28.393Z,35.20
2019-04-03T05:02:01.498Z,34.78
2019-04-03T05:02:34.590Z,34.90
2019-04-03T05:03:08.744Z,35.15
2019-04-03T05:03:41.913Z,34.80
2019-04-03T05:04:15.919Z,35.70
2019-04-03T05:04:49.131Z,36.13
2019-04-03T05:05:22.221Z,36.38
2019-04-03T05:05:58.479Z,36.28
2019-04-03T05:06:31.128Z,36.70
2019-04-03T05:07:04.255Z,36.70
2019-04-03T05:07:37.333Z,36.65
2019-04-03T05:08:10.365Z,36.80
2019-04-03T05:08:43.453Z,36.63
2019-04-03T05:09:16.479Z,36.50
2019-04-03T05:09:49.334Z,36.15
2019-04-03T05:10:22.260Z,36.25
2019-04-03T05:10:55.251Z,36.83
2019-04-03T05:11:28.599Z,36.73
2019-04-03T05:12:01.484Z,37.48
2019-04-03T05:12:34.498Z,36.95
2019-04-03T05:13:07.616Z,37.30
2019-04-03T05:13:40.860Z,37.67
2019-04-03T05:14:13.864Z,37.40
2019-04-03T05:14:51.482Z,37.15
2019-04-03T05:15:24.494Z,38.15
2019-04-03T05:15:57.647Z,37.40
2019-04-03T05:16:30.628Z,37.75
2019-04-03T05:17:03.748Z,37.48
2019-04-03T05:17:36.744Z,37.90
2019-04-03T05:18:09.919Z,37.48
2019-04-03T05:18:42.980Z,37.13
2019-04-03T05:19:18.930Z,37.88
2019-04-03T05:19:50.948Z,38.13
2019-04-03T05:20:24.086Z,38.83
2019-04-03T05:20:57.534Z,37.93
2019-04-03T05:21:30.715Z,38.75
2019-04-03T05:22:03.747Z,38.53
2019-04-03T05:22:36.722Z,39.00
2019-04-03T05:23:09.994Z,38.92
2019-04-03T05:23:42.947Z,38.65
2019-04-03T05:24:16.000Z,39.20
2019-04-03T05:24:48.948Z,38.90
2019-04-03T05:25:22.058Z,39.05
2019-04-03T05:25:54.906Z,39.38
2019-04-03T05:26:27.798Z,39.33
2019-04-03T05:27:02.448Z,38.48
2019-04-03T05:27:36.341Z,39.88
2019-04-03T05:28:09.489Z,39.65
2019-04-03T05:28:54.243Z,39.23
2019-04-03T05:29:17.548Z,39.83
2019-04-03T05:29:50.738Z,39.38
2019-04-03T05:30:32.279Z,38.15
2019-04-03T05:31:07.647Z,40.08
2019-04-03T05:31:40.600Z,39.42
2019-04-03T05:32:13.611Z,39.48
2019-04-03T05:32:46.467Z,39.03
2019-04-03T05:33:19.724Z,39.48
2019-04-03T05:33:52.818Z,40.48
2019-04-03T05:34:25.867Z,40.17
2019-04-03T05:34:58.960Z,40.45
2019-04-03T05:35:31.798Z,40.20
2019-04-03T05:36:04.763Z,40.43
2019-04-03T05:36:38.974Z,40.28
2019-04-03T05:37:12.783Z,40.55
2019-04-03T05:37:46.024Z,40.43
2019-04-03T05:38:21.826Z,40.58
2019-04-03T05:38:54.088Z,40.17
2019-04-03T05:39:27.138Z,39.92
2019-04-03T05:40:00.174Z,40.15
2019-04-03T05:40:34.378Z,40.67
2019-04-03T05:41:07.274Z,40.58
2019-04-03T05:41:40.333Z,40.73
2019-04-03T05:42:13.494Z,40.70
2019-04-03T05:42:46.550Z,39.92
2019-04-03T05:43:19.618Z,40.43
2019-04-03T05:43:52.651Z,40.40
2019-04-03T05:44:25.680Z,40.60
2019-04-03T05:44:58.816Z,40.15
2019-04-03T05:45:34.487Z,40.48
2019-04-03T05:46:06.816Z,40.35
2019-04-03T05:46:39.956Z,40.73
2019-04-03T05:47:12.944Z,40.23
2019-04-03T05:47:46.030Z,41.45
2019-04-03T05:48:19.390Z,41.37
2019-04-03T05:48:52.366Z,40.70
2019-04-03T05:49:25.360Z,40.78
2019-04-03T05:49:58.552Z,40.28
2019-04-03T05:50:31.600Z,40.73
2019-04-03T05:51:04.739Z,40.52
2019-04-03T05:51:37.987Z,40.08
2019-04-03T05:52:11.077Z,41.33
2019-04-03T05:52:44.525Z,41.85
2019-04-03T05:53:17.802Z,40.88
2019-04-03T05:53:53.698Z,41.25
2019-04-03T05:54:27.496Z,40.83
2019-04-03T05:55:00.580Z,41.20
2019-04-03T05:55:34.717Z,41.23
2019-04-03T05:56:07.939Z,41.13
2019-04-03T05:56:42.964Z,40.50
2019-04-03T05:57:16.211Z,41.58
2019-04-03T05:57:49.318Z,40.85
2019-04-03T05:58:22.396Z,40.80
2019-04-03T05:58:59.096Z,41.55
2019-04-03T05:59:32.520Z,41.48
2019-04-03T06:00:07.108Z,40.33
2019-04-03T06:00:41.108Z,40.67
2019-04-03T06:01:14.418Z,41.23
2019-04-03T06:01:47.594Z,40.23
2019-04-03T06:02:22.056Z,41.25
2019-04-03T06:02:57.173Z,41.73
2019-04-03T06:03:40.523Z,41.40
2019-04-03T06:04:05.402Z,43.05
2019-04-03T06:04:38.761Z,41.83
2019-04-03T06:05:13.362Z,41.37
2019-04-03T06:05:46.650Z,43.08
2019-04-03T06:06:19.647Z,42.03
2019-04-03T06:06:52.678Z,41.95
2019-04-03T06:07:25.734Z,43.13
2019-04-03T06:07:58.792Z,42.83
2019-04-03T06:08:34.257Z,41.23
2019-04-03T06:09:07.562Z,42.08
2019-04-03T06:09:40.398Z,42.70
2019-04-03T06:10:13.758Z,42.55
2019-04-03T06:10:46.770Z,42.30
2019-04-03T06:11:20.863Z,41.28
2019-04-03T06:11:54.346Z,42.65
2019-04-03T06:12:27.493Z,41.98
2019-04-03T06:13:01.134Z,42.78
2019-04-03T06:13:34.265Z,42.23
2019-04-03T06:14:08.773Z,42.30
2019-04-03T06:14:42.017Z,42.35
2019-04-03T06:15:15.365Z,41.95
2019-04-03T06:15:48.521Z,41.92
2019-04-03T06:16:23.411Z,42.25
2019-04-03T06:16:56.849Z,42.55
2019-04-03T06:17:30.042Z,41.42
2019-04-03T06:18:03.388Z,42.60
2019-04-03T06:18:36.520Z,42.85
2019-04-03T06:19:09.422Z,42.33
2019-04-03T06:19:42.449Z,41.83
2019-04-03T06:20:15.679Z,42.03
2019-04-03T06:20:48.827Z,42.58
2019-04-03T06:21:24.296Z,42.05
2019-04-03T06:21:57.387Z,42.73
2019-04-03T06:22:30.286Z,40.70
2019-04-03T06:23:04.293Z,42.13
2019-04-03T06:23:38.635Z,42.90
2019-04-03T06:24:11.774Z,42.17
2019-04-03T06:24:46.474Z,41.85
2019-04-03T06:25:19.713Z,41.68
2019-04-03T06:25:52.618Z,41.48
2019-04-03T06:26:25.790Z,41.50
2019-04-03T06:26:58.886Z,41.90
2019-04-03T06:27:31.911Z,42.40
2019-04-03T06:28:04.914Z,42.13
2019-04-03T06:28:37.765Z,41.13
2019-04-03T06:29:10.829Z,41.00
2019-04-03T06:29:45.681Z,40.85
2019-04-03T06:30:18.842Z,41.53
2019-04-03T06:30:51.817Z,41.02
2019-04-03T06:31:26.489Z,40.88
2019-04-03T06:31:59.658Z,40.15
2019-04-03T06:32:32.583Z,41.63
2019-04-03T06:33:06.580Z,41.58
2019-04-03T06:33:39.589Z,41.90
2019-04-03T06:34:12.597Z,39.75
2019-04-03T06:34:45.618Z,41.95
2019-04-03T06:35:18.693Z,41.37
2019-04-03T06:35:51.721Z,40.45
2019-04-03T06:36:25.036Z,41.68
2019-04-03T06:36:58.172Z,40.88
2019-04-03T06:37:31.402Z,42.70
2019-04-03T06:38:05.323Z,41.75
2019-04-03T06:38:38.214Z,40.92
2019-04-03T06:39:11.263Z,41.45
2019-04-03T06:39:44.563Z,41.77
2019-04-03T06:40:18.803Z,41.48
2019-04-03T06:40:51.870Z,41.75
2019-04-03T06:41:25.002Z,41.37
2019-04-03T06:41:57.934Z,41.95
2019-04-03T06:42:32.293Z,41.50
2019-04-03T06:43:05.330Z,41.08
2019-04-03T06:43:38.372Z,41.90
2019-04-03T06:44:11.409Z,41.75
2019-04-03T06:44:44.408Z,41.85
2019-04-03T06:45:17.488Z,41.02
2019-04-03T06:45:50.774Z,41.65
2019-04-03T06:46:23.743Z,41.68
2019-04-03T06:46:56.808Z,42.35
2019-04-03T06:47:31.856Z,41.20
2019-04-03T06:48:05.506Z,42.65
2019-04-03T06:48:38.582Z,42.40
2019-04-03T06:49:11.476Z,42.08
2019-04-03T06:49:44.442Z,41.63
2019-04-03T06:50:17.950Z,41.48
2019-04-03T06:50:50.918Z,41.90
2019-04-03T06:51:23.868Z,40.95
2019-04-03T06:51:57.022Z,42.65
2019-04-03T06:52:29.932Z,41.48
2019-04-03T06:53:03.048Z,41.40
2019-04-03T06:53:35.955Z,41.95
2019-04-03T06:54:08.897Z,42.43
2019-04-03T06:54:44.245Z,41.68
2019-04-03T06:55:17.100Z,42.10
2019-04-03T06:55:49.988Z,40.95
2019-04-03T06:56:23.020Z,42.33
2019-04-03T06:56:55.933Z,41.30
2019-04-03T06:57:29.060Z,41.30
2019-04-03T06:58:01.951Z,41.58
2019-04-03T06:58:38.916Z,41.80
2019-04-03T06:59:09.898Z,41.60
2019-04-03T06:59:42.979Z,41.83
2019-04-03T07:00:16.235Z,41.90
2019-04-03T07:00:49.141Z,41.68
2019-04-03T07:01:22.044Z,41.80
2019-04-03T07:01:55.085Z,42.40
2019-04-03T07:02:31.053Z,41.98
2019-04-03T07:03:03.874Z,41.80
2019-04-03T07:03:37.203Z,42.83
2019-04-03T07:04:11.291Z,40.92
2019-04-03T07:04:44.382Z,41.92
2019-04-03T07:05:17.659Z,41.00
2019-04-03T07:05:50.979Z,41.30
2019-04-03T07:06:24.277Z,41.00
2019-04-03T07:06:57.362Z,41.30
2019-04-03T07:07:34.356Z,40.95
2019-04-03T07:08:06.446Z,40.28
2019-04-03T07:08:41.214Z,40.30
2019-04-03T07:09:22.757Z,40.80
2019-04-03T07:09:50.815Z,41.80
2019-04-03T07:10:26.008Z,40.90
2019-04-03T07:10:59.082Z,40.95
2019-04-03T07:11:31.991Z,40.25
2019-04-03T07:12:04.910Z,40.63